sensor_id;sensor_type;location;lat;lon;timestamp;P1;durP1;ratioP1;P2;durP2;ratioP2
2201;SDS011;1107;48.654;9.250;2023-03-01T00:02:09;28.65;;;12.30;;
2201;SDS011;1107;48.654;9.250;2023-03-01T00:04:36;19.67;;;10.20;;
2201;SDS011;1107;48.654;9.250;2023-03-01T00:07:02;15.45;;;11.10;;
2201;SDS011;1107;48.654;9.250;2023-03-01T00:09:29;15.63;;;11.10;;
2201;SDS011;1107;48.654;9.250;2023-03-01T00:11:56;22.45;;;11.48;;
2201;SDS011;1107;48.654;9.250;2023-03-01T00:14:25;21.30;;;12.55;;
2201;SDS011;1107;48.654;9.250;2023-03-01T00:16:52;21.85;;;12.00;;
2201;SDS011;1107;48.654;9.250;2023-03-01T00:19:19;21.08;;;11.55;;
2201;SDS011;1107;48.654;9.250;2023-03-01T00:21:46;21.42;;;11.95;;
2201;SDS011;1107;48.654;9.250;2023-03-01T00:24:14;22.45;;;12.75;;
2201;SDS011;1107;48.654;9.250;2023-03-01T00:26:41;20.42;;;11.30;;
2201;SDS011;1107;48.654;9.250;2023-03-01T00:29:08;16.67;;;10.80;;
2201;SDS011;1107;48.654;9.250;2023-03-01T00:31:37;18.48;;;11.10;;
2201;SDS011;1107;48.654;9.250;2023-03-01T00:34:04;20.70;;;11.70;;
2201;SDS011;1107;48.654;9.250;2023-03-01T00:36:32;19.00;;;12.25;;
2201;SDS011;1107;48.654;9.250;2023-03-01T00:39:00;21.75;;;11.80;;
2201;SDS011;1107;48.654;9.250;2023-03-01T00:41:29;19.90;;;10.82;;
2201;SDS011;1107;48.654;9.250;2023-03-01T00:43:56;21.25;;;12.98;;
2201;SDS011;1107;48.654;9.250;2023-03-01T00:46:24;18.48;;;12.35;;
2201;SDS011;1107;48.654;9.250;2023-03-01T00:48:53;20.85;;;12.57;;
2201;SDS011;1107;48.654;9.250;2023-03-01T00:51:21;20.42;;;11.75;;
2201;SDS011;1107;48.654;9.250;2023-03-01T00:53:49;13.35;;;10.40;;
2201;SDS011;1107;48.654;9.250;2023-03-01T00:56:17;19.83;;;10.07;;
2201;SDS011;1107;48.654;9.250;2023-03-01T00:58:44;19.55;;;12.13;;
2201;SDS011;1107;48.654;9.250;2023-03-01T01:01:12;22.15;;;12.40;;
2201;SDS011;1107;48.654;9.250;2023-03-01T01:03:44;20.02;;;12.43;;
2201;SDS011;1107;48.654;9.250;2023-03-01T01:06:17;15.18;;;11.20;;
2201;SDS011;1107;48.654;9.250;2023-03-01T01:08:45;18.88;;;10.80;;
2201;SDS011;1107;48.654;9.250;2023-03-01T01:11:13;16.33;;;11.75;;
2201;SDS011;1107;48.654;9.250;2023-03-01T01:13:40;25.30;;;13.23;;
2201;SDS011;1107;48.654;9.250;2023-03-01T01:16:09;17.63;;;10.85;;
2201;SDS011;1107;48.654;9.250;2023-03-01T01:18:36;24.85;;;11.85;;
2201;SDS011;1107;48.654;9.250;2023-03-01T01:21:04;17.42;;;11.77;;
2201;SDS011;1107;48.654;9.250;2023-03-01T01:23:33;23.15;;;10.93;;
2201;SDS011;1107;48.654;9.250;2023-03-01T01:26:04;16.85;;;12.07;;
2201;SDS011;1107;48.654;9.250;2023-03-01T01:28:32;16.55;;;11.52;;
2201;SDS011;1107;48.654;9.250;2023-03-01T01:31:00;30.25;;;12.20;;
2201;SDS011;1107;48.654;9.250;2023-03-01T01:33:27;20.33;;;12.70;;
2201;SDS011;1107;48.654;9.250;2023-03-01T01:35:54;22.38;;;13.27;;
2201;SDS011;1107;48.654;9.250;2023-03-01T01:38:21;21.08;;;12.40;;
2201;SDS011;1107;48.654;9.250;2023-03-01T01:40:49;20.00;;;12.60;;
2201;SDS011;1107;48.654;9.250;2023-03-01T01:43:21;21.02;;;11.55;;
2201;SDS011;1107;48.654;9.250;2023-03-01T01:45:49;22.33;;;12.80;;
2201;SDS011;1107;48.654;9.250;2023-03-01T01:48:18;24.33;;;13.07;;
2201;SDS011;1107;48.654;9.250;2023-03-01T01:50:49;15.45;;;11.75;;
2201;SDS011;1107;48.654;9.250;2023-03-01T01:53:21;24.10;;;12.90;;
2201;SDS011;1107;48.654;9.250;2023-03-01T01:55:52;20.40;;;12.40;;
2201;SDS011;1107;48.654;9.250;2023-03-01T01:58:22;22.92;;;12.10;;
2201;SDS011;1107;48.654;9.250;2023-03-01T02:00:51;21.10;;;13.05;;
2201;SDS011;1107;48.654;9.250;2023-03-01T02:03:20;19.80;;;10.95;;
2201;SDS011;1107;48.654;9.250;2023-03-01T02:05:55;20.35;;;12.65;;
2201;SDS011;1107;48.654;9.250;2023-03-01T02:08:27;20.50;;;11.95;;
2201;SDS011;1107;48.654;9.250;2023-03-01T02:10:57;26.75;;;12.18;;
2201;SDS011;1107;48.654;9.250;2023-03-01T02:13:26;17.75;;;11.40;;
2201;SDS011;1107;48.654;9.250;2023-03-01T02:15:53;19.33;;;11.98;;
2201;SDS011;1107;48.654;9.250;2023-03-01T02:18:21;18.77;;;12.02;;
2201;SDS011;1107;48.654;9.250;2023-03-01T02:21:02;21.13;;;12.75;;
2201;SDS011;1107;48.654;9.250;2023-03-01T02:23:38;21.15;;;12.35;;
2201;SDS011;1107;48.654;9.250;2023-03-01T02:26:09;19.05;;;11.48;;
2201;SDS011;1107;48.654;9.250;2023-03-01T02:28:42;18.00;;;11.98;;
2201;SDS011;1107;48.654;9.250;2023-03-01T02:31:11;21.15;;;13.20;;
2201;SDS011;1107;48.654;9.250;2023-03-01T02:34:01;20.42;;;12.02;;
2201;SDS011;1107;48.654;9.250;2023-03-01T02:36:31;26.02;;;13.85;;
2201;SDS011;1107;48.654;9.250;2023-03-01T02:39:01;18.75;;;11.60;;
2201;SDS011;1107;48.654;9.250;2023-03-01T02:41:31;21.48;;;13.48;;
2201;SDS011;1107;48.654;9.250;2023-03-01T02:44:03;23.23;;;12.73;;
2201;SDS011;1107;48.654;9.250;2023-03-01T02:46:30;21.23;;;12.88;;
2201;SDS011;1107;48.654;9.250;2023-03-01T02:48:58;17.17;;;12.50;;
2201;SDS011;1107;48.654;9.250;2023-03-01T02:51:28;15.73;;;11.43;;
2201;SDS011;1107;48.654;9.250;2023-03-01T02:54:11;21.85;;;13.27;;
2201;SDS011;1107;48.654;9.250;2023-03-01T02:56:44;19.58;;;12.65;;
2201;SDS011;1107;48.654;9.250;2023-03-01T02:59:14;24.48;;;12.02;;
2201;SDS011;1107;48.654;9.250;2023-03-01T03:01:42;22.23;;;12.98;;
2201;SDS011;1107;48.654;9.250;2023-03-01T03:04:10;21.77;;;11.80;;
2201;SDS011;1107;48.654;9.250;2023-03-01T03:06:42;20.45;;;12.90;;
2201;SDS011;1107;48.654;9.250;2023-03-01T03:09:09;15.68;;;11.95;;
2201;SDS011;1107;48.654;9.250;2023-03-01T03:11:36;21.05;;;12.85;;
2201;SDS011;1107;48.654;9.250;2023-03-01T03:14:04;27.02;;;13.48;;
2201;SDS011;1107;48.654;9.250;2023-03-01T03:16:38;25.27;;;13.27;;
2201;SDS011;1107;48.654;9.250;2023-03-01T03:19:06;27.33;;;13.85;;
2201;SDS011;1107;48.654;9.250;2023-03-01T03:21:33;19.55;;;12.10;;
2201;SDS011;1107;48.654;9.250;2023-03-01T03:24:00;18.02;;;12.18;;
2201;SDS011;1107;48.654;9.250;2023-03-01T03:26:28;20.27;;;12.95;;
2201;SDS011;1107;48.654;9.250;2023-03-01T03:28:55;18.42;;;12.25;;
2201;SDS011;1107;48.654;9.250;2023-03-01T03:31:22;25.17;;;12.60;;
2201;SDS011;1107;48.654;9.250;2023-03-01T03:33:51;21.45;;;13.02;;
2201;SDS011;1107;48.654;9.250;2023-03-01T03:36:19;23.27;;;14.35;;
2201;SDS011;1107;48.654;9.250;2023-03-01T03:38:47;16.42;;;11.93;;
2201;SDS011;1107;48.654;9.250;2023-03-01T03:41:15;20.45;;;13.55;;
2201;SDS011;1107;48.654;9.250;2023-03-01T03:43:43;20.10;;;13.02;;
2201;SDS011;1107;48.654;9.250;2023-03-01T03:46:10;23.60;;;12.75;;
2201;SDS011;1107;48.654;9.250;2023-03-01T03:48:38;23.38;;;12.85;;
2201;SDS011;1107;48.654;9.250;2023-03-01T03:51:09;22.25;;;14.13;;
2201;SDS011;1107;48.654;9.250;2023-03-01T03:53:37;22.95;;;14.00;;
2201;SDS011;1107;48.654;9.250;2023-03-01T03:56:04;22.95;;;13.60;;
2201;SDS011;1107;48.654;9.250;2023-03-01T03:58:32;21.58;;;13.32;;
2201;SDS011;1107;48.654;9.250;2023-03-01T04:00:59;24.65;;;13.45;;
2201;SDS011;1107;48.654;9.250;2023-03-01T04:03:27;24.73;;;12.77;;
2201;SDS011;1107;48.654;9.250;2023-03-01T04:05:56;21.50;;;13.85;;
2201;SDS011;1107;48.654;9.250;2023-03-01T04:08:25;21.63;;;14.02;;
2201;SDS011;1107;48.654;9.250;2023-03-01T04:10:57;21.38;;;13.30;;
2201;SDS011;1107;48.654;9.250;2023-03-01T04:13:25;19.08;;;13.48;;
2201;SDS011;1107;48.654;9.250;2023-03-01T04:15:53;21.25;;;13.25;;
2201;SDS011;1107;48.654;9.250;2023-03-01T04:18:21;24.15;;;13.35;;
2201;SDS011;1107;48.654;9.250;2023-03-01T04:20:50;24.17;;;12.63;;
2201;SDS011;1107;48.654;9.250;2023-03-01T04:23:20;22.55;;;14.20;;
2201;SDS011;1107;48.654;9.250;2023-03-01T04:25:50;24.63;;;13.63;;
2201;SDS011;1107;48.654;9.250;2023-03-01T04:28:20;21.52;;;12.38;;
2201;SDS011;1107;48.654;9.250;2023-03-01T04:30:49;22.77;;;13.38;;
2201;SDS011;1107;48.654;9.250;2023-03-01T04:33:16;22.45;;;14.10;;
2201;SDS011;1107;48.654;9.250;2023-03-01T04:35:44;24.45;;;14.43;;
2201;SDS011;1107;48.654;9.250;2023-03-01T04:38:14;20.33;;;12.45;;
2201;SDS011;1107;48.654;9.250;2023-03-01T04:40:41;22.60;;;13.85;;
2201;SDS011;1107;48.654;9.250;2023-03-01T04:43:10;30.17;;;13.43;;
2201;SDS011;1107;48.654;9.250;2023-03-01T04:45:39;24.05;;;14.57;;
2201;SDS011;1107;48.654;9.250;2023-03-01T04:48:06;22.33;;;13.70;;
2201;SDS011;1107;48.654;9.250;2023-03-01T04:50:33;20.48;;;13.75;;
2201;SDS011;1107;48.654;9.250;2023-03-01T04:53:00;31.88;;;14.85;;
2201;SDS011;1107;48.654;9.250;2023-03-01T04:55:28;21.40;;;13.88;;
2201;SDS011;1107;48.654;9.250;2023-03-01T04:57:56;23.80;;;14.30;;
2201;SDS011;1107;48.654;9.250;2023-03-01T05:00:24;27.08;;;15.65;;
2201;SDS011;1107;48.654;9.250;2023-03-01T05:02:52;26.35;;;15.10;;
2201;SDS011;1107;48.654;9.250;2023-03-01T05:05:21;24.38;;;15.98;;
2201;SDS011;1107;48.654;9.250;2023-03-01T05:07:51;22.90;;;14.65;;
2201;SDS011;1107;48.654;9.250;2023-03-01T05:10:22;26.15;;;13.60;;
2201;SDS011;1107;48.654;9.250;2023-03-01T05:12:50;22.55;;;15.73;;
2201;SDS011;1107;48.654;9.250;2023-03-01T05:15:18;25.60;;;15.05;;
2201;SDS011;1107;48.654;9.250;2023-03-01T05:17:48;30.02;;;14.45;;
2201;SDS011;1107;48.654;9.250;2023-03-01T05:20:15;35.10;;;15.23;;
2201;SDS011;1107;48.654;9.250;2023-03-01T05:22:42;34.67;;;15.40;;
2201;SDS011;1107;48.654;9.250;2023-03-01T05:25:09;24.80;;;14.50;;
2201;SDS011;1107;48.654;9.250;2023-03-01T05:27:39;26.10;;;14.50;;
2201;SDS011;1107;48.654;9.250;2023-03-01T05:30:06;23.08;;;14.45;;
2201;SDS011;1107;48.654;9.250;2023-03-01T05:32:42;29.45;;;15.30;;
2201;SDS011;1107;48.654;9.250;2023-03-01T05:35:13;29.33;;;16.02;;
2201;SDS011;1107;48.654;9.250;2023-03-01T05:37:41;44.40;;;16.00;;
2201;SDS011;1107;48.654;9.250;2023-03-01T05:40:09;52.72;;;14.50;;
2201;SDS011;1107;48.654;9.250;2023-03-01T05:42:44;23.15;;;14.23;;
2201;SDS011;1107;48.654;9.250;2023-03-01T05:45:13;36.13;;;14.07;;
2201;SDS011;1107;48.654;9.250;2023-03-01T05:47:42;26.75;;;15.90;;
2201;SDS011;1107;48.654;9.250;2023-03-01T05:50:11;27.75;;;15.90;;
2201;SDS011;1107;48.654;9.250;2023-03-01T05:52:44;22.48;;;13.80;;
2201;SDS011;1107;48.654;9.250;2023-03-01T05:55:13;23.15;;;14.57;;
2201;SDS011;1107;48.654;9.250;2023-03-01T05:57:40;24.58;;;14.82;;
2201;SDS011;1107;48.654;9.250;2023-03-01T06:00:08;27.23;;;15.50;;
2201;SDS011;1107;48.654;9.250;2023-03-01T06:02:36;28.63;;;15.80;;
2201;SDS011;1107;48.654;9.250;2023-03-01T06:05:04;24.80;;;14.70;;
2201;SDS011;1107;48.654;9.250;2023-03-01T06:07:33;28.33;;;14.85;;
2201;SDS011;1107;48.654;9.250;2023-03-01T06:10:00;25.85;;;15.65;;
2201;SDS011;1107;48.654;9.250;2023-03-01T06:12:29;26.38;;;15.40;;
2201;SDS011;1107;48.654;9.250;2023-03-01T06:14:56;24.65;;;15.68;;
2201;SDS011;1107;48.654;9.250;2023-03-01T06:17:23;21.15;;;14.90;;
2201;SDS011;1107;48.654;9.250;2023-03-01T06:19:50;28.77;;;16.95;;
2201;SDS011;1107;48.654;9.250;2023-03-01T06:22:17;24.83;;;15.23;;
2201;SDS011;1107;48.654;9.250;2023-03-01T06:24:46;30.75;;;14.07;;
2201;SDS011;1107;48.654;9.250;2023-03-01T06:27:13;22.58;;;14.70;;
2201;SDS011;1107;48.654;9.250;2023-03-01T06:29:39;30.95;;;15.48;;
2201;SDS011;1107;48.654;9.250;2023-03-01T06:32:06;32.45;;;15.13;;
2201;SDS011;1107;48.654;9.250;2023-03-01T06:34:34;27.10;;;15.80;;
2201;SDS011;1107;48.654;9.250;2023-03-01T06:37:01;26.20;;;15.63;;
2201;SDS011;1107;48.654;9.250;2023-03-01T06:39:30;27.80;;;15.05;;
2201;SDS011;1107;48.654;9.250;2023-03-01T06:41:58;24.67;;;14.60;;
2201;SDS011;1107;48.654;9.250;2023-03-01T06:44:26;30.17;;;14.85;;
2201;SDS011;1107;48.654;9.250;2023-03-01T06:46:53;23.33;;;14.70;;
2201;SDS011;1107;48.654;9.250;2023-03-01T06:49:20;28.35;;;16.40;;
2201;SDS011;1107;48.654;9.250;2023-03-01T06:51:47;25.63;;;15.13;;
2201;SDS011;1107;48.654;9.250;2023-03-01T06:54:14;25.10;;;14.55;;
2201;SDS011;1107;48.654;9.250;2023-03-01T06:56:42;25.23;;;14.98;;
2201;SDS011;1107;48.654;9.250;2023-03-01T06:59:13;27.95;;;15.00;;
2201;SDS011;1107;48.654;9.250;2023-03-01T07:01:40;24.77;;;15.75;;
2201;SDS011;1107;48.654;9.250;2023-03-01T07:04:08;25.58;;;16.13;;
2201;SDS011;1107;48.654;9.250;2023-03-01T07:06:35;25.15;;;15.95;;
2201;SDS011;1107;48.654;9.250;2023-03-01T07:09:02;26.33;;;15.88;;
2201;SDS011;1107;48.654;9.250;2023-03-01T07:11:29;25.60;;;15.32;;
2201;SDS011;1107;48.654;9.250;2023-03-01T07:13:56;29.83;;;17.52;;
2201;SDS011;1107;48.654;9.250;2023-03-01T07:16:24;24.50;;;14.38;;
2201;SDS011;1107;48.654;9.250;2023-03-01T07:18:51;30.65;;;17.00;;
2201;SDS011;1107;48.654;9.250;2023-03-01T07:21:18;22.60;;;16.30;;
2201;SDS011;1107;48.654;9.250;2023-03-01T07:23:46;25.75;;;16.85;;
2201;SDS011;1107;48.654;9.250;2023-03-01T07:26:14;26.73;;;15.77;;
2201;SDS011;1107;48.654;9.250;2023-03-01T07:28:40;27.83;;;16.20;;
2201;SDS011;1107;48.654;9.250;2023-03-01T07:31:07;21.80;;;16.05;;
2201;SDS011;1107;48.654;9.250;2023-03-01T07:33:36;25.85;;;16.50;;
2201;SDS011;1107;48.654;9.250;2023-03-01T07:36:03;22.95;;;15.68;;
2201;SDS011;1107;48.654;9.250;2023-03-01T07:38:31;33.38;;;16.40;;
2201;SDS011;1107;48.654;9.250;2023-03-01T07:40:58;36.95;;;17.45;;
2201;SDS011;1107;48.654;9.250;2023-03-01T07:43:27;22.20;;;15.75;;
2201;SDS011;1107;48.654;9.250;2023-03-01T07:45:54;26.80;;;16.63;;
2201;SDS011;1107;48.654;9.250;2023-03-01T07:48:21;22.20;;;15.88;;
2201;SDS011;1107;48.654;9.250;2023-03-01T07:50:49;25.27;;;16.17;;
2201;SDS011;1107;48.654;9.250;2023-03-01T07:53:16;32.70;;;17.17;;
2201;SDS011;1107;48.654;9.250;2023-03-01T07:55:43;20.67;;;15.27;;
2201;SDS011;1107;48.654;9.250;2023-03-01T07:58:10;20.77;;;15.60;;
2201;SDS011;1107;48.654;9.250;2023-03-01T08:00:37;24.53;;;17.50;;
2201;SDS011;1107;48.654;9.250;2023-03-01T08:03:04;25.40;;;18.20;;
2201;SDS011;1107;48.654;9.250;2023-03-01T08:05:30;23.87;;;17.03;;
2201;SDS011;1107;48.654;9.250;2023-03-01T08:15:20;27.13;;;18.40;;
2201;SDS011;1107;48.654;9.250;2023-03-01T08:17:48;27.07;;;19.10;;
2201;SDS011;1107;48.654;9.250;2023-03-01T08:20:15;28.20;;;17.77;;
2201;SDS011;1107;48.654;9.250;2023-03-01T08:22:42;24.30;;;16.93;;
2201;SDS011;1107;48.654;9.250;2023-03-01T08:25:11;19.30;;;16.40;;
2201;SDS011;1107;48.654;9.250;2023-03-01T08:27:38;27.23;;;18.70;;
2201;SDS011;1107;48.654;9.250;2023-03-01T08:30:05;27.70;;;19.40;;
2201;SDS011;1107;48.654;9.250;2023-03-01T08:32:35;23.40;;;18.40;;
2201;SDS011;1107;48.654;9.250;2023-03-01T08:35:03;27.60;;;18.93;;
2201;SDS011;1107;48.654;9.250;2023-03-01T08:37:31;25.47;;;18.97;;
2201;SDS011;1107;48.654;9.250;2023-03-01T08:39:58;23.63;;;17.97;;
2201;SDS011;1107;48.654;9.250;2023-03-01T08:42:26;27.97;;;19.47;;
2201;SDS011;1107;48.654;9.250;2023-03-01T08:44:53;24.73;;;18.83;;
2201;SDS011;1107;48.654;9.250;2023-03-01T08:47:21;21.40;;;17.53;;
2201;SDS011;1107;48.654;9.250;2023-03-01T08:49:49;21.90;;;18.30;;
2201;SDS011;1107;48.654;9.250;2023-03-01T08:52:16;22.60;;;18.50;;
2201;SDS011;1107;48.654;9.250;2023-03-01T08:54:43;25.57;;;18.77;;
2201;SDS011;1107;48.654;9.250;2023-03-01T08:57:10;24.57;;;18.23;;
2201;SDS011;1107;48.654;9.250;2023-03-01T08:59:39;20.90;;;17.60;;
2201;SDS011;1107;48.654;9.250;2023-03-01T09:02:10;24.63;;;18.17;;
2201;SDS011;1107;48.654;9.250;2023-03-01T09:04:39;22.73;;;17.67;;
2201;SDS011;1107;48.654;9.250;2023-03-01T09:07:06;23.67;;;17.90;;
2201;SDS011;1107;48.654;9.250;2023-03-01T09:09:34;21.80;;;18.07;;
2201;SDS011;1107;48.654;9.250;2023-03-01T09:12:01;24.57;;;18.80;;
2201;SDS011;1107;48.654;9.250;2023-03-01T09:14:29;18.60;;;16.30;;
2201;SDS011;1107;48.654;9.250;2023-03-01T09:16:58;22.87;;;17.27;;
2201;SDS011;1107;48.654;9.250;2023-03-01T09:19:27;28.43;;;18.70;;
2201;SDS011;1107;48.654;9.250;2023-03-01T09:21:54;26.17;;;16.23;;
2201;SDS011;1107;48.654;9.250;2023-03-01T09:24:23;24.43;;;17.83;;
2201;SDS011;1107;48.654;9.250;2023-03-01T09:26:52;22.40;;;18.50;;
2201;SDS011;1107;48.654;9.250;2023-03-01T09:29:21;24.37;;;18.27;;
2201;SDS011;1107;48.654;9.250;2023-03-01T09:31:49;24.67;;;18.77;;
2201;SDS011;1107;48.654;9.250;2023-03-01T09:34:17;23.70;;;17.77;;
2201;SDS011;1107;48.654;9.250;2023-03-01T09:36:48;23.10;;;17.13;;
2201;SDS011;1107;48.654;9.250;2023-03-01T09:39:15;25.40;;;18.60;;
2201;SDS011;1107;48.654;9.250;2023-03-01T09:41:45;27.03;;;18.77;;
2201;SDS011;1107;48.654;9.250;2023-03-01T09:44:18;24.50;;;18.67;;
2201;SDS011;1107;48.654;9.250;2023-03-01T09:46:52;28.23;;;19.33;;
2201;SDS011;1107;48.654;9.250;2023-03-01T09:49:21;24.40;;;18.47;;
2201;SDS011;1107;48.654;9.250;2023-03-01T09:51:55;27.40;;;19.13;;
2201;SDS011;1107;48.654;9.250;2023-03-01T09:54:25;26.00;;;19.53;;
2201;SDS011;1107;48.654;9.250;2023-03-01T09:57:06;22.80;;;18.40;;
2201;SDS011;1107;48.654;9.250;2023-03-01T09:59:45;31.33;;;20.67;;
2201;SDS011;1107;48.654;9.250;2023-03-01T10:02:26;22.47;;;18.50;;
2201;SDS011;1107;48.654;9.250;2023-03-01T10:04:59;24.40;;;18.30;;
2201;SDS011;1107;48.654;9.250;2023-03-01T10:07:37;26.60;;;19.30;;
2201;SDS011;1107;48.654;9.250;2023-03-01T10:10:15;25.23;;;19.90;;
2201;SDS011;1107;48.654;9.250;2023-03-01T10:12:47;24.57;;;18.90;;
2201;SDS011;1107;48.654;9.250;2023-03-01T10:15:16;26.83;;;19.50;;
2201;SDS011;1107;48.654;9.250;2023-03-01T10:17:48;20.90;;;18.60;;
2201;SDS011;1107;48.654;9.250;2023-03-01T10:20:23;21.87;;;18.93;;
2201;SDS011;1107;48.654;9.250;2023-03-01T10:22:51;20.97;;;18.77;;
2201;SDS011;1107;48.654;9.250;2023-03-01T10:25:23;26.83;;;19.10;;
2201;SDS011;1107;48.654;9.250;2023-03-01T10:28:00;23.90;;;19.17;;
2201;SDS011;1107;48.654;9.250;2023-03-01T10:30:32;23.00;;;19.27;;
2201;SDS011;1107;48.654;9.250;2023-03-01T10:33:03;23.30;;;19.70;;
2201;SDS011;1107;48.654;9.250;2023-03-01T10:35:40;24.10;;;19.67;;
2201;SDS011;1107;48.654;9.250;2023-03-01T10:38:09;23.50;;;19.10;;
2201;SDS011;1107;48.654;9.250;2023-03-01T10:40:49;21.23;;;18.77;;
2201;SDS011;1107;48.654;9.250;2023-03-01T10:43:18;22.90;;;20.10;;
2201;SDS011;1107;48.654;9.250;2023-03-01T10:45:46;24.10;;;20.67;;
2201;SDS011;1107;48.654;9.250;2023-03-01T10:48:14;20.83;;;18.73;;
2201;SDS011;1107;48.654;9.250;2023-03-01T10:50:44;26.30;;;20.20;;
2201;SDS011;1107;48.654;9.250;2023-03-01T10:53:20;21.27;;;19.00;;
2201;SDS011;1107;48.654;9.250;2023-03-01T10:56:01;23.97;;;19.80;;
2201;SDS011;1107;48.654;9.250;2023-03-01T10:58:30;20.93;;;18.73;;
2201;SDS011;1107;48.654;9.250;2023-03-01T11:00:58;30.43;;;19.30;;
2201;SDS011;1107;48.654;9.250;2023-03-01T11:03:28;21.50;;;19.30;;
2201;SDS011;1107;48.654;9.250;2023-03-01T11:05:59;23.73;;;19.00;;
2201;SDS011;1107;48.654;9.250;2023-03-01T11:08:29;32.40;;;19.43;;
2201;SDS011;1107;48.654;9.250;2023-03-01T11:11:13;24.00;;;17.63;;
2201;SDS011;1107;48.654;9.250;2023-03-01T11:13:56;21.93;;;18.90;;
2201;SDS011;1107;48.654;9.250;2023-03-01T11:16:26;22.63;;;17.73;;
2201;SDS011;1107;48.654;9.250;2023-03-01T11:19:12;21.50;;;17.70;;
2201;SDS011;1107;48.654;9.250;2023-03-01T11:21:44;19.40;;;17.30;;
2201;SDS011;1107;48.654;9.250;2023-03-01T11:24:23;22.77;;;18.90;;
2201;SDS011;1107;48.654;9.250;2023-03-01T11:26:55;21.03;;;18.50;;
2201;SDS011;1107;48.654;9.250;2023-03-01T11:29:27;18.43;;;16.70;;
2201;SDS011;1107;48.654;9.250;2023-03-01T11:31:58;19.07;;;16.77;;
2201;SDS011;1107;48.654;9.250;2023-03-01T11:34:33;19.27;;;17.30;;
2201;SDS011;1107;48.654;9.250;2023-03-01T11:37:09;17.57;;;15.73;;
2201;SDS011;1107;48.654;9.250;2023-03-01T11:39:43;18.03;;;16.30;;
2201;SDS011;1107;48.654;9.250;2023-03-01T11:42:17;18.90;;;15.97;;
2201;SDS011;1107;48.654;9.250;2023-03-01T11:44:48;19.47;;;17.43;;
2201;SDS011;1107;48.654;9.250;2023-03-01T11:47:24;23.73;;;17.30;;
2201;SDS011;1107;48.654;9.250;2023-03-01T11:50:08;19.13;;;17.23;;
2201;SDS011;1107;48.654;9.250;2023-03-01T11:52:48;23.87;;;18.67;;
2201;SDS011;1107;48.654;9.250;2023-03-01T11:55:26;19.00;;;17.10;;
2201;SDS011;1107;48.654;9.250;2023-03-01T11:58:09;19.80;;;17.00;;
2201;SDS011;1107;48.654;9.250;2023-03-01T12:00:55;18.13;;;16.37;;
2201;SDS011;1107;48.654;9.250;2023-03-01T12:03:35;19.47;;;17.43;;
2201;SDS011;1107;48.654;9.250;2023-03-01T12:06:26;18.90;;;17.10;;
2201;SDS011;1107;48.654;9.250;2023-03-01T12:09:09;17.90;;;16.40;;
2201;SDS011;1107;48.654;9.250;2023-03-01T12:11:59;18.90;;;17.07;;
2201;SDS011;1107;48.654;9.250;2023-03-01T12:14:52;18.03;;;16.37;;
2201;SDS011;1107;48.654;9.250;2023-03-01T12:17:33;19.73;;;17.73;;
2201;SDS011;1107;48.654;9.250;2023-03-01T12:20:17;19.00;;;17.00;;
2201;SDS011;1107;48.654;9.250;2023-03-01T12:22:53;19.97;;;17.80;;
2201;SDS011;1107;48.654;9.250;2023-03-01T12:25:32;22.63;;;17.53;;
2201;SDS011;1107;48.654;9.250;2023-03-01T12:28:14;20.30;;;17.90;;
2201;SDS011;1107;48.654;9.250;2023-03-01T12:34:07;23.10;;;18.73;;
2201;SDS011;1107;48.654;9.250;2023-03-01T12:36:53;24.53;;;18.50;;
2201;SDS011;1107;48.654;9.250;2023-03-01T12:39:36;19.20;;;17.40;;
2201;SDS011;1107;48.654;9.250;2023-03-01T12:42:15;24.13;;;18.70;;
2201;SDS011;1107;48.654;9.250;2023-03-01T12:44:57;18.83;;;17.03;;
2201;SDS011;1107;48.654;9.250;2023-03-01T12:47:46;20.10;;;18.10;;
2201;SDS011;1107;48.654;9.250;2023-03-01T12:50:26;20.57;;;18.40;;
2201;SDS011;1107;48.654;9.250;2023-03-01T12:53:02;19.87;;;17.70;;
2201;SDS011;1107;48.654;9.250;2023-03-01T12:55:30;19.07;;;17.33;;
2201;SDS011;1107;48.654;9.250;2023-03-01T12:58:04;18.63;;;16.90;;
2201;SDS011;1107;48.654;9.250;2023-03-01T13:00:39;17.40;;;15.93;;
2201;SDS011;1107;48.654;9.250;2023-03-01T13:03:19;18.23;;;16.57;;
2201;SDS011;1107;48.654;9.250;2023-03-01T13:05:56;18.73;;;17.13;;
2201;SDS011;1107;48.654;9.250;2023-03-01T13:08:31;17.77;;;16.17;;
2201;SDS011;1107;48.654;9.250;2023-03-01T13:11:03;18.40;;;16.50;;
2201;SDS011;1107;48.654;9.250;2023-03-01T13:13:39;27.00;;;17.50;;
2201;SDS011;1107;48.654;9.250;2023-03-01T13:16:37;19.13;;;17.13;;
2201;SDS011;1107;48.654;9.250;2023-03-01T13:19:08;18.80;;;17.03;;
2201;SDS011;1107;48.654;9.250;2023-03-01T13:21:40;20.07;;;17.97;;
2201;SDS011;1107;48.654;9.250;2023-03-01T13:27:09;18.23;;;16.40;;
2201;SDS011;1107;48.654;9.250;2023-03-01T13:29:49;23.07;;;17.60;;
2201;SDS011;1107;48.654;9.250;2023-03-01T13:32:20;20.77;;;18.03;;
2201;SDS011;1107;48.654;9.250;2023-03-01T13:34:52;19.50;;;17.37;;
2201;SDS011;1107;48.654;9.250;2023-03-01T13:37:25;19.40;;;17.60;;
2201;SDS011;1107;48.654;9.250;2023-03-01T13:40:01;19.73;;;17.60;;
2201;SDS011;1107;48.654;9.250;2023-03-01T13:42:33;19.40;;;17.40;;
2201;SDS011;1107;48.654;9.250;2023-03-01T13:45:17;21.33;;;17.63;;
2201;SDS011;1107;48.654;9.250;2023-03-01T13:47:48;23.03;;;17.87;;
2201;SDS011;1107;48.654;9.250;2023-03-01T13:50:19;19.27;;;17.27;;
2201;SDS011;1107;48.654;9.250;2023-03-01T13:52:50;21.37;;;17.90;;
2201;SDS011;1107;48.654;9.250;2023-03-01T13:55:23;20.50;;;18.20;;
2201;SDS011;1107;48.654;9.250;2023-03-01T13:57:54;18.83;;;17.00;;
2201;SDS011;1107;48.654;9.250;2023-03-01T14:00:35;18.43;;;16.60;;
2201;SDS011;1107;48.654;9.250;2023-03-01T14:03:04;20.43;;;17.30;;
2201;SDS011;1107;48.654;9.250;2023-03-01T14:05:39;18.00;;;16.23;;
2201;SDS011;1107;48.654;9.250;2023-03-01T14:08:18;22.33;;;16.13;;
2201;SDS011;1107;48.654;9.250;2023-03-01T14:10:51;18.83;;;16.33;;
2201;SDS011;1107;48.654;9.250;2023-03-01T14:13:34;16.00;;;14.50;;
2201;SDS011;1107;48.654;9.250;2023-03-01T14:16:19;18.90;;;16.50;;
2201;SDS011;1107;48.654;9.250;2023-03-01T14:18:57;18.50;;;15.03;;
2201;SDS011;1107;48.654;9.250;2023-03-01T14:21:32;16.17;;;14.57;;
2201;SDS011;1107;48.654;9.250;2023-03-01T14:24:00;16.00;;;14.40;;
2201;SDS011;1107;48.654;9.250;2023-03-01T14:26:27;16.43;;;13.90;;
2201;SDS011;1107;48.654;9.250;2023-03-01T14:28:55;17.63;;;15.23;;
2201;SDS011;1107;48.654;9.250;2023-03-01T14:31:34;18.33;;;15.40;;
2201;SDS011;1107;48.654;9.250;2023-03-01T14:34:02;18.37;;;15.00;;
2201;SDS011;1107;48.654;9.250;2023-03-01T14:36:30;17.90;;;15.53;;
2201;SDS011;1107;48.654;9.250;2023-03-01T14:38:59;17.20;;;15.37;;
2201;SDS011;1107;48.654;9.250;2023-03-01T14:41:30;16.80;;;15.00;;
2201;SDS011;1107;48.654;9.250;2023-03-01T14:44:00;17.80;;;15.30;;
2201;SDS011;1107;48.654;9.250;2023-03-01T14:46:32;16.67;;;15.07;;
2201;SDS011;1107;48.654;9.250;2023-03-01T14:49:03;16.37;;;14.70;;
2201;SDS011;1107;48.654;9.250;2023-03-01T14:51:35;19.17;;;16.57;;
2201;SDS011;1107;48.654;9.250;2023-03-01T14:54:04;20.17;;;15.40;;
2201;SDS011;1107;48.654;9.250;2023-03-01T14:56:45;18.53;;;14.87;;
2201;SDS011;1107;48.654;9.250;2023-03-01T14:59:14;18.40;;;15.77;;
2201;SDS011;1107;48.654;9.250;2023-03-01T15:01:43;18.00;;;15.60;;
2201;SDS011;1107;48.654;9.250;2023-03-01T15:04:11;20.60;;;15.20;;
2201;SDS011;1107;48.654;9.250;2023-03-01T15:06:39;18.10;;;14.73;;
2201;SDS011;1107;48.654;9.250;2023-03-01T15:09:11;21.97;;;16.37;;
2201;SDS011;1107;48.654;9.250;2023-03-01T15:11:41;17.33;;;14.63;;
2201;SDS011;1107;48.654;9.250;2023-03-01T15:14:27;22.17;;;15.97;;
2201;SDS011;1107;48.654;9.250;2023-03-01T15:17:15;21.97;;;16.90;;
2201;SDS011;1107;48.654;9.250;2023-03-01T15:19:48;18.70;;;15.80;;
2201;SDS011;1107;48.654;9.250;2023-03-01T15:22:15;22.57;;;15.03;;
2201;SDS011;1107;48.654;9.250;2023-03-01T15:24:46;17.63;;;15.43;;